Time;durP1;ratioP1;P1;durP2;ratioP2;P2;SDS_P1;SDS_P2;PMS_P1;PMS_P2;Temp;Humidity;BMP_temperature;BMP_pressure;BME280_temperature;BME280_humidity;BME280_pressure;Samples;Min_cycle;Max_cycle;Signal;HPM_P1;HPM_P2
2022/03/30 00:00:12;;;;;;;25.97;11.47;;;;;;;;;;5092567;28;20457;-70
2022/03/30 00:02:39;;;;;;;23.63;11.87;;;;;;;;;;5092675;28;20443;-70
2022/03/30 00:05:07;;;;;;;18.93;11.17;;;;;;;;;;5091899;28;20458;-70
2022/03/30 00:07:34;;;;;;;36.60;12.63;;;;;;;;;;5092632;28;20474;-70
2022/03/30 00:10:01;;;;;;;22.27;12.80;;;;;;;;;;5092503;28;20453;-70
2022/03/30 00:12:28;;;;;;;23.90;12.93;;;;;;;;;;5092439;28;20446;-70
2022/03/30 00:14:57;;;;;;;25.53;12.10;;;;;;;;;;5091895;28;20451;-70
2022/03/30 00:17:24;;;;;;;21.80;11.63;;;;;;;;;;5092654;28;20458;-70
2022/03/30 00:19:51;;;;;;;20.00;10.80;;;;;;;;;;5092427;28;20450;-70
2022/03/30 00:22:18;;;;;;;17.30;10.70;;;;;;;;;;5091460;28;20466;-70
2022/03/30 00:24:45;;;;;;;20.70;11.80;;;;;;;;;;5091678;28;20450;-70
2022/03/30 00:27:12;;;;;;;23.90;11.80;;;;;;;;;;5092461;28;20462;-70
2022/03/30 00:29:40;;;;;;;21.13;11.80;;;;;;;;;;5092624;28;20876;-70
2022/03/30 00:32:09;;;;;;;16.07;11.00;;;;;;;;;;5092269;28;20458;-70
2022/03/30 00:34:36;;;;;;;27.73;12.33;;;;;;;;;;5091705;28;21029;-70
2022/03/30 00:37:03;;;;;;;23.23;12.00;;;;;;;;;;5092379;28;20943;-70
2022/03/30 00:39:30;;;;;;;17.63;12.23;;;;;;;;;;5092259;28;20482;-70
2022/03/30 00:41:57;;;;;;;23.37;11.00;;;;;;;;;;5092291;28;20459;-70
2022/03/30 00:44:24;;;;;;;20.50;12.23;;;;;;;;;;5091541;28;20434;-70
2022/03/30 00:46:52;;;;;;;18.33;10.90;;;;;;;;;;5092180;28;20454;-70
2022/03/30 00:49:20;;;;;;;27.13;12.57;;;;;;;;;;5092282;28;20467;-70
2022/03/30 00:51:47;;;;;;;18.43;11.03;;;;;;;;;;5092084;28;20450;-70
2022/03/30 00:54:15;;;;;;;25.37;12.80;;;;;;;;;;5089693;28;20497;-70
2022/03/30 00:56:44;;;;;;;17.67;10.37;;;;;;;;;;5092228;28;21025;-70
2022/03/30 00:59:11;;;;;;;24.57;12.90;;;;;;;;;;5091943;28;20514;-70
2022/03/30 01:01:39;;;;;;;19.10;11.00;;;;;;;;;;5092162;28;20490;-70
2022/03/30 01:04:07;;;;;;;26.30;10.83;;;;;;;;;;5094339;28;20823;-70
2022/03/30 01:06:36;;;;;;;15.90;11.20;;;;;;;;;;5095653;28;20549;-70
2022/03/30 01:09:03;;;;;;;19.27;11.20;;;;;;;;;;5095755;28;20479;-70
2022/03/30 01:11:30;;;;;;;20.73;11.60;;;;;;;;;;5095789;28;20458;-70
2022/03/30 01:13:57;;;;;;;18.30;11.63;;;;;;;;;;5094896;28;20481;-70
2022/03/30 01:16:25;;;;;;;16.73;10.13;;;;;;;;;;5095785;28;20458;-70
2022/03/30 01:19:02;;;;;;;24.53;12.10;;;;;;;;;;5095297;28;20474;-70
2022/03/30 01:21:30;;;;;;;35.23;12.00;;;;;;;;;;5095387;28;20454;-70
2022/03/30 01:23:57;;;;;;;16.67;10.90;;;;;;;;;;5093923;28;20496;-70
2022/03/30 01:26:25;;;;;;;23.80;12.00;;;;;;;;;;5095499;28;20477;-70
2022/03/30 01:28:52;;;;;;;17.87;12.37;;;;;;;;;;5095316;28;20562;-70
2022/03/30 01:34:04;;;;;;;20.67;11.70;;;;;;;;;;5094685;28;20508;-70
2022/03/30 01:36:32;;;;;;;21.90;11.90;;;;;;;;;;5095349;28;20443;-70
2022/03/30 01:38:59;;;;;;;18.37;11.10;;;;;;;;;;5095133;28;20478;-70
2022/03/30 01:41:26;;;;;;;18.93;11.30;;;;;;;;;;5095252;28;20462;-70
2022/03/30 01:43:53;;;;;;;21.50;10.63;;;;;;;;;;5094290;28;20450;-70
2022/03/30 01:46:20;;;;;;;21.17;10.80;;;;;;;;;;5094989;28;20455;-70
2022/03/30 01:48:48;;;;;;;22.23;10.33;;;;;;;;;;5094892;28;20463;-70
2022/03/30 01:51:15;;;;;;;27.83;10.70;;;;;;;;;;5094868;28;20457;-70
2022/03/30 01:53:43;;;;;;;17.13;10.80;;;;;;;;;;5091445;28;20490;-71
2022/03/30 01:56:10;;;;;;;21.93;12.10;;;;;;;;;;5094801;28;20438;-70
2022/03/30 01:58:37;;;;;;;16.80;10.07;;;;;;;;;;5094606;28;20482;-70
2022/03/30 02:01:05;;;;;;;20.63;12.03;;;;;;;;;;5095028;28;20819;-72
2022/03/30 02:03:32;;;;;;;16.27;11.40;;;;;;;;;;5095426;28;20486;-72
2022/03/30 02:05:59;;;;;;;19.37;10.83;;;;;;;;;;5095085;28;20450;-72
2022/03/30 02:08:26;;;;;;;29.13;12.20;;;;;;;;;;5095026;28;20478;-72
2022/03/30 02:10:55;;;;;;;23.23;10.97;;;;;;;;;;5095360;28;20849;-71
2022/03/30 02:13:22;;;;;;;26.97;14.03;;;;;;;;;;5095254;28;20489;-72
2022/03/30 02:15:49;;;;;;;22.67;13.30;;;;;;;;;;5094345;28;20450;-72
2022/03/30 02:18:16;;;;;;;18.33;11.97;;;;;;;;;;5095036;28;20473;-71
2022/03/30 02:20:43;;;;;;;24.20;12.70;;;;;;;;;;5095110;28;20462;-72
2022/03/30 02:23:10;;;;;;;19.53;12.17;;;;;;;;;;5094365;28;20515;-71
2022/03/30 02:25:37;;;;;;;19.13;12.10;;;;;;;;;;5094600;28;20438;-71
2022/03/30 02:28:06;;;;;;;20.17;11.30;;;;;;;;;;5095009;28;20471;-72
2022/03/30 02:30:33;;;;;;;28.43;12.47;;;;;;;;;;5094924;28;20985;-72
2022/03/30 02:33:01;;;;;;;23.37;13.57;;;;;;;;;;5095005;28;20455;-72
2022/03/30 02:35:29;;;;;;;28.20;14.30;;;;;;;;;;5094892;28;20910;-72
2022/03/30 02:37:57;;;;;;;25.63;13.80;;;;;;;;;;5094683;28;20473;-72
2022/03/30 02:40:25;;;;;;;22.87;12.73;;;;;;;;;;5094837;28;20961;-72
2022/03/30 02:42:52;;;;;;;26.93;12.33;;;;;;;;;;5094763;28;20449;-72
2022/03/30 02:45:20;;;;;;;20.93;11.70;;;;;;;;;;5094256;28;20439;-72
2022/03/30 02:50:32;;;;;;;32.77;21.67;;;;;;;;;;5094381;28;20448;-71
2022/03/30 02:52:59;;;;;;;24.40;13.20;;;;;;;;;;5093750;28;20446;-72
2022/03/30 02:55:26;;;;;;;19.37;12.70;;;;;;;;;;5094386;28;20467;-72
2022/03/30 02:57:53;;;;;;;15.70;11.03;;;;;;;;;;5094352;28;20975;-72
2022/03/30 03:00:22;;;;;;;28.67;12.47;;;;;;;;;;5094432;28;20955;-72
2022/03/30 03:02:49;;;;;;;20.43;11.27;;;;;;;;;;5094344;28;20500;-72
2022/03/30 03:05:16;;;;;;;43.27;16.00;;;;;;;;;;5094211;28;20451;-71
2022/03/30 03:07:43;;;;;;;25.77;14.20;;;;;;;;;;5094247;28;20494;-71
2022/03/30 03:10:11;;;;;;;24.97;13.27;;;;;;;;;;5094126;28;20458;-71
2022/03/30 03:12:38;;;;;;;19.90;11.37;;;;;;;;;;5094203;28;20457;-71
2022/03/30 03:15:05;;;;;;;23.83;11.63;;;;;;;;;;5093983;28;21021;-71
2022/03/30 03:17:33;;;;;;;29.70;12.40;;;;;;;;;;5093941;28;20454;-72
2022/03/30 03:20:00;;;;;;;21.97;11.40;;;;;;;;;;5093840;28;20439;-71
2022/03/30 03:22:28;;;;;;;23.43;10.93;;;;;;;;;;5093324;28;20470;-71
2022/03/30 03:24:55;;;;;;;21.10;11.90;;;;;;;;;;5093808;28;20446;-71
2022/03/30 03:27:22;;;;;;;27.00;12.27;;;;;;;;;;5093744;28;20454;-71
2022/03/30 03:29:49;;;;;;;22.20;12.73;;;;;;;;;;5093618;28;20458;-71
2022/03/30 03:32:16;;;;;;;20.40;11.70;;;;;;;;;;5093415;28;20462;-71
2022/03/30 03:34:44;;;;;;;19.50;12.10;;;;;;;;;;5093741;28;20991;-71
2022/03/30 03:37:12;;;;;;;28.00;13.00;;;;;;;;;;5093747;28;20461;-71
2022/03/30 03:39:40;;;;;;;34.03;18.53;;;;;;;;;;5093677;28;20474;-71
2022/03/30 03:42:07;;;;;;;23.13;12.93;;;;;;;;;;5093382;28;20450;-71
2022/03/30 03:44:35;;;;;;;34.40;11.63;;;;;;;;;;5093297;28;20446;-71
2022/03/30 03:47:02;;;;;;;18.20;11.57;;;;;;;;;;5093275;28;20458;-71
2022/03/30 03:49:30;;;;;;;22.63;11.00;;;;;;;;;;5093497;28;20832;-71
2022/03/30 03:51:58;;;;;;;28.97;11.33;;;;;;;;;;5093290;28;20446;-71
2022/03/30 03:54:25;;;;;;;19.83;11.40;;;;;;;;;;5092995;28;20463;-72
2022/03/30 03:56:52;;;;;;;21.47;12.97;;;;;;;;;;5093243;28;20454;-72
2022/03/30 03:59:19;;;;;;;18.23;11.17;;;;;;;;;;5093357;28;20467;-72
2022/03/30 04:01:46;;;;;;;21.53;12.20;;;;;;;;;;5093460;28;20489;-71
2022/03/30 04:04:14;;;;;;;16.33;12.40;;;;;;;;;;5093069;28;20458;-71
2022/03/30 04:06:41;;;;;;;18.97;11.80;;;;;;;;;;5093388;28;20453;-71
2022/03/30 04:09:09;;;;;;;21.27;11.80;;;;;;;;;;5093367;28;20479;-72
2022/03/30 04:11:36;;;;;;;21.30;11.90;;;;;;;;;;5093371;28;20481;-71
2022/03/30 04:14:04;;;;;;;23.33;14.27;;;;;;;;;;5092884;28;20493;-71
2022/03/30 04:16:31;;;;;;;28.00;13.23;;;;;;;;;;5093326;28;20447;-71
2022/03/30 04:18:58;;;;;;;24.03;11.43;;;;;;;;;;5093143;28;21014;-71
2022/03/30 04:21:25;;;;;;;22.97;12.93;;;;;;;;;;5093114;28;20459;-71
2022/03/30 04:23:53;;;;;;;13.90;10.83;;;;;;;;;;5093147;28;20438;-71
2022/03/30 04:26:21;;;;;;;18.37;12.37;;;;;;;;;;5093206;28;20952;-71
2022/03/30 04:28:48;;;;;;;18.10;11.97;;;;;;;;;;5093178;28;20466;-71
2022/03/30 04:31:15;;;;;;;19.10;11.57;;;;;;;;;;5092849;28;20449;-72
2022/03/30 04:33:42;;;;;;;27.93;11.67;;;;;;;;;;5092765;28;20466;-71
2022/03/30 04:36:09;;;;;;;21.13;11.30;;;;;;;;;;5093167;28;20963;-71
2022/03/30 04:38:37;;;;;;;21.37;11.23;;;;;;;;;;5095378;28;20979;-71
2022/03/30 04:41:04;;;;;;;14.97;10.90;;;;;;;;;;5097106;28;20935;-71
2022/03/30 04:43:32;;;;;;;21.93;10.40;;;;;;;;;;5096657;28;20450;-71
2022/03/30 04:45:59;;;;;;;18.67;12.57;;;;;;;;;;5096609;28;20450;-71
2022/03/30 04:48:26;;;;;;;20.07;12.17;;;;;;;;;;5096901;28;20466;-71
2022/03/30 04:50:53;;;;;;;17.93;10.93;;;;;;;;;;5097028;28;20818;-71
2022/03/30 04:53:20;;;;;;;16.17;10.90;;;;;;;;;;5096601;28;20457;-71
2022/03/30 04:55:47;;;;;;;25.30;10.63;;;;;;;;;;5096499;28;20497;-71
2022/03/30 04:58:15;;;;;;;18.37;11.13;;;;;;;;;;5096692;28;21001;-71
2022/03/30 05:00:43;;;;;;;18.00;10.13;;;;;;;;;;5096780;28;20444;-71
2022/03/30 05:03:10;;;;;;;18.63;10.60;;;;;;;;;;5096674;28;20450;-71
2022/03/30 05:05:37;;;;;;;15.93;11.70;;;;;;;;;;5096612;28;20474;-71
2022/03/30 05:08:04;;;;;;;22.43;13.40;;;;;;;;;;5096472;28;20467;-71
2022/03/30 05:10:31;;;;;;;35.73;18.23;;;;;;;;;;5096280;28;20442;-71
2022/03/30 05:13:00;;;;;;;22.00;13.17;;;;;;;;;;5096243;28;20458;-71
2022/03/30 05:15:28;;;;;;;20.90;12.37;;;;;;;;;;5096317;28;21124;-71
2022/03/30 05:17:56;;;;;;;15.47;11.03;;;;;;;;;;5096536;28;20885;-72
2022/03/30 05:20:24;;;;;;;24.13;10.20;;;;;;;;;;5096456;28;20536;-71
2022/03/30 05:22:51;;;;;;;14.70;10.17;;;;;;;;;;5096122;28;20468;-72
2022/03/30 05:25:19;;;;;;;17.00;12.23;;;;;;;;;;5096322;28;20454;-72
2022/03/30 05:27:46;;;;;;;15.80;10.70;;;;;;;;;;5096347;28;20466;-71
2022/03/30 05:30:14;;;;;;;15.37;11.77;;;;;;;;;;5095923;28;20451;-71
2022/03/30 05:32:44;;;;;;;26.47;12.27;;;;;;;;;;5096307;28;20973;-71
2022/03/30 05:35:13;;;;;;;28.17;12.87;;;;;;;;;;5096030;28;20470;-72
2022/03/30 05:37:40;;;;;;;20.80;13.37;;;;;;;;;;5096137;28;20466;-72
2022/03/30 05:40:09;;;;;;;25.10;11.57;;;;;;;;;;5096064;28;20862;-71
2022/03/30 05:42:36;;;;;;;20.00;12.40;;;;;;;;;;5096289;28;20454;-71
2022/03/30 05:45:04;;;;;;;27.43;11.70;;;;;;;;;;5095981;28;20495;-71
2022/03/30 05:47:31;;;;;;;19.40;12.80;;;;;;;;;;5095984;28;20483;-71
2022/03/30 05:49:58;;;;;;;22.03;13.13;;;;;;;;;;5094693;28;20524;-72
2022/03/30 05:52:27;;;;;;;19.37;10.90;;;;;;;;;;5095660;28;20454;-72
2022/03/30 05:54:54;;;;;;;15.57;10.27;;;;;;;;;;5095607;28;20506;-71
2022/03/30 05:57:23;;;;;;;18.90;11.53;;;;;;;;;;5095694;28;20458;-72
2022/03/30 05:59:50;;;;;;;23.77;13.60;;;;;;;;;;5095982;28;20442;-72
2022/03/30 06:02:17;;;;;;;17.07;11.00;;;;;;;;;;5096096;28;20832;-71
2022/03/30 06:04:45;;;;;;;14.10;11.17;;;;;;;;;;5096121;28;20842;-71
2022/03/30 06:07:12;;;;;;;22.30;11.43;;;;;;;;;;5096145;28;20464;-71
2022/03/30 06:09:41;;;;;;;24.23;11.87;;;;;;;;;;5095988;28;20478;-72
2022/03/30 06:12:09;;;;;;;18.43;10.93;;;;;;;;;;5096048;28;20803;-72
2022/03/30 06:14:36;;;;;;;14.53;11.13;;;;;;;;;;5095803;28;20895;-71
2022/03/30 06:17:04;;;;;;;16.13;10.90;;;;;;;;;;5095919;28;20450;-71
2022/03/30 06:19:32;;;;;;;16.10;10.73;;;;;;;;;;5095547;28;20924;-71
2022/03/30 06:21:59;;;;;;;16.60;11.60;;;;;;;;;;5095662;28;20462;-71
2022/03/30 06:24:26;;;;;;;24.87;11.90;;;;;;;;;;5095697;28;20438;-71
2022/03/30 06:26:55;;;;;;;28.17;15.90;;;;;;;;;;5095412;28;20461;-71
2022/03/30 06:29:22;;;;;;;32.43;15.07;;;;;;;;;;5095251;28;20474;-72
2022/03/30 06:31:49;;;;;;;20.23;12.97;;;;;;;;;;5095819;28;20454;-71
2022/03/30 06:34:16;;;;;;;15.43;12.20;;;;;;;;;;5095620;28;20891;-72
2022/03/30 06:36:44;;;;;;;23.03;13.60;;;;;;;;;;5095533;28;20470;-71
2022/03/30 06:39:11;;;;;;;16.17;10.80;;;;;;;;;;5095244;28;20479;-71
2022/03/30 06:41:39;;;;;;;25.83;15.27;;;;;;;;;;5094919;28;20462;-71
2022/03/30 06:44:07;;;;;;;19.70;12.70;;;;;;;;;;5094960;28;20797;-71
2022/03/30 06:46:38;;;;;;;15.50;10.60;;;;;;;;;;5095082;28;20449;-71
2022/03/30 06:49:05;;;;;;;18.43;12.03;;;;;;;;;;5094696;28;20475;-71
2022/03/30 06:51:32;;;;;;;16.37;11.50;;;;;;;;;;5095259;28;20863;-71
2022/03/30 06:53:59;;;;;;;21.43;10.50;;;;;;;;;;5094738;28;20462;-71
2022/03/30 06:56:26;;;;;;;17.00;11.27;;;;;;;;;;5094954;28;20466;-72
2022/03/30 06:58:54;;;;;;;14.90;11.70;;;;;;;;;;5094872;28;20478;-71
2022/03/30 07:01:23;;;;;;;15.07;10.60;;;;;;;;;;5094742;28;20455;-72
2022/03/30 07:03:50;;;;;;;20.90;12.10;;;;;;;;;;5094444;28;20459;-71
2022/03/30 07:06:17;;;;;;;17.67;12.00;;;;;;;;;;5094941;28;20923;-72
2022/03/30 07:11:29;;;;;;;18.53;10.77;;;;;;;;;;5094558;28;20410;-72
2022/03/30 07:13:58;;;;;;;22.37;10.70;;;;;;;;;;5094232;28;20446;-72
2022/03/30 07:16:26;;;;;;;19.93;11.83;;;;;;;;;;5094378;28;20478;-71
2022/03/30 07:18:55;;;;;;;18.13;11.00;;;;;;;;;;5094354;28;20466;-71
2022/03/30 07:21:22;;;;;;;24.40;12.60;;;;;;;;;;5094359;28;20454;-71
2022/03/30 07:23:49;;;;;;;26.10;11.67;;;;;;;;;;5094089;28;20487;-72
2022/03/30 07:26:16;;;;;;;25.07;12.90;;;;;;;;;;5094337;28;20438;-71
2022/03/30 07:28:43;;;;;;;21.73;9.87;;;;;;;;;;5094041;28;20479;-72
2022/03/30 07:31:10;;;;;;;18.63;11.40;;;;;;;;;;5094595;28;20450;-71
2022/03/30 07:33:39;;;;;;;16.70;10.37;;;;;;;;;;5094235;28;20451;-71
2022/03/30 07:36:06;;;;;;;15.00;9.83;;;;;;;;;;5093886;28;20501;-72
2022/03/30 07:38:33;;;;;;;21.30;12.23;;;;;;;;;;5083691;28;20480;-71
2022/03/30 07:41:01;;;;;;;18.57;12.20;;;;;;;;;;5072273;28;20489;-71
2022/03/30 07:43:29;;;;;;;18.23;11.33;;;;;;;;;;5072198;28;20947;-71
2022/03/30 07:45:56;;;;;;;13.70;9.70;;;;;;;;;;5072629;28;20960;-71
2022/03/30 07:48:24;;;;;;;15.20;8.77;;;;;;;;;;5072134;28;20472;-71
2022/03/30 07:50:53;;;;;;;17.70;11.10;;;;;;;;;;5072399;28;20451;-71
2022/03/30 07:53:20;;;;;;;19.33;11.90;;;;;;;;;;5071960;28;20456;-71
2022/03/30 07:55:48;;;;;;;18.97;10.47;;;;;;;;;;5072123;28;20467;-72
2022/03/30 07:58:15;;;;;;;17.27;10.77;;;;;;;;;;5072431;28;20985;-71
2022/03/30 08:00:42;;;;;;;15.83;11.50;;;;;;;;;;5072243;28;20455;-72
2022/03/30 08:03:09;;;;;;;14.93;10.53;;;;;;;;;;5071743;28;20821;-72
2022/03/30 08:05:36;;;;;;;17.07;11.63;;;;;;;;;;5072236;28;20432;-72
2022/03/30 08:08:07;;;;;;;13.03;9.70;;;;;;;;;;5071616;28;20503;-71
2022/03/30 08:10:35;;;;;;;20.37;10.57;;;;;;;;;;5071893;28;20439;-72
2022/03/30 08:13:02;;;;;;;23.07;11.00;;;;;;;;;;5073166;28;20504;-72
2022/03/30 08:15:29;;;;;;;15.67;10.80;;;;;;;;;;5075666;28;20659;-71
2022/03/30 08:17:57;;;;;;;14.10;10.23;;;;;;;;;;5076148;28;20464;-71
2022/03/30 08:23:10;;;;;;;12.93;9.70;;;;;;;;;;5075789;28;20450;-71
2022/03/30 08:25:38;;;;;;;12.60;9.10;;;;;;;;;;5075714;28;20464;-72
2022/03/30 08:28:05;;;;;;;16.07;10.60;;;;;;;;;;5075748;28;20558;-71
2022/03/30 08:30:33;;;;;;;17.37;11.10;;;;;;;;;;5075742;28;20941;-71
2022/03/30 08:33:01;;;;;;;15.90;10.00;;;;;;;;;;5075445;28;20490;-72
2022/03/30 08:35:28;;;;;;;17.57;10.33;;;;;;;;;;5075318;28;20537;-72
2022/03/30 08:37:56;;;;;;;14.50;10.70;;;;;;;;;;5075758;28;20965;-71
2022/03/30 08:40:25;;;;;;;19.73;10.00;;;;;;;;;;5075700;28;20829;-71
2022/03/30 08:42:53;;;;;;;20.70;10.60;;;;;;;;;;5075089;28;20466;-72
2022/03/30 08:45:20;;;;;;;21.17;11.10;;;;;;;;;;5075639;28;20475;-70
2022/03/30 08:47:48;;;;;;;20.43;11.10;;;;;;;;;;5075340;28;20479;-72
2022/03/30 08:50:15;;;;;;;22.00;10.20;;;;;;;;;;5075095;28;20451;-71
2022/03/30 08:52:45;;;;;;;14.50;10.53;;;;;;;;;;5075386;28;20833;-71
2022/03/30 08:55:12;;;;;;;17.40;10.67;;;;;;;;;;5074501;28;20509;-71
2022/03/30 08:57:40;;;;;;;15.70;10.33;;;;;;;;;;5074955;28;20533;-71
2022/03/30 09:00:09;;;;;;;17.13;12.20;;;;;;;;;;5075150;28;20844;-71
2022/03/30 09:02:37;;;;;;;32.40;10.57;;;;;;;;;;5074783;28;20877;-71
2022/03/30 09:05:15;;;;;;;17.30;11.13;;;;;;;;;;5074788;28;20454;-71
2022/03/30 09:07:42;;;;;;;22.77;11.90;;;;;;;;;;5075402;28;20554;-71
2022/03/30 09:10:14;;;;;;;14.53;10.23;;;;;;;;;;5075208;28;20498;-71
2022/03/30 09:12:43;;;;;;;17.60;11.57;;;;;;;;;;5075060;28;20958;-71
2022/03/30 09:15:10;;;;;;;23.10;11.67;;;;;;;;;;5074524;28;20795;-71
2022/03/30 09:17:38;;;;;;;16.87;9.93;;;;;;;;;;5075104;28;20988;-71
2022/03/30 09:20:05;;;;;;;20.60;10.63;;;;;;;;;;5075810;28;20449;-71
2022/03/30 09:22:34;;;;;;;15.77;9.40;;;;;;;;;;5075454;28;20842;-71
2022/03/30 09:25:02;;;;;;;14.53;9.87;;;;;;;;;;5075389;28;20509;-72
2022/03/30 09:27:29;;;;;;;22.67;11.40;;;;;;;;;;5075537;28;20450;-71
2022/03/30 09:29:58;;;;;;;35.97;11.70;;;;;;;;;;5075943;28;20459;-72
2022/03/30 09:32:26;;;;;;;24.53;10.40;;;;;;;;;;5075907;28;20458;-72
2022/03/30 09:34:53;;;;;;;27.47;11.33;;;;;;;;;;5075493;28;20451;-72
2022/03/30 09:37:21;;;;;;;20.57;9.80;;;;;;;;;;5075406;28;20495;-71
2022/03/30 09:39:49;;;;;;;21.10;10.60;;;;;;;;;;5075502;28;20435;-71
2022/03/30 09:42:17;;;;;;;21.33;11.80;;;;;;;;;;5075719;28;20458;-72
2022/03/30 09:44:48;;;;;;;20.03;11.80;;;;;;;;;;5075602;28;20960;-72
2022/03/30 09:47:16;;;;;;;22.50;10.23;;;;;;;;;;5075473;28;20452;-71
2022/03/30 09:49:45;;;;;;;30.97;10.50;;;;;;;;;;5075548;28;20463;-72
2022/03/30 09:52:13;;;;;;;20.50;11.20;;;;;;;;;;5074811;28;20459;-72
2022/03/30 09:54:41;;;;;;;27.07;11.80;;;;;;;;;;5075458;28;20906;-72
2022/03/30 09:57:13;;;;;;;20.73;10.20;;;;;;;;;;5075377;28;20495;-72
2022/03/30 09:59:59;;;;;;;24.80;9.60;;;;;;;;;;5075404;28;20964;-72
2022/03/30 10:02:28;;;;;;;20.03;10.43;;;;;;;;;;5075062;28;20448;-72
2022/03/30 10:04:56;;;;;;;24.37;10.83;;;;;;;;;;5075241;28;20448;-72
2022/03/30 10:07:23;;;;;;;26.27;11.60;;;;;;;;;;5075524;28;20472;-72
2022/03/30 10:09:51;;;;;;;23.20;9.60;;;;;;;;;;5074972;28;20491;-72
2022/03/30 10:12:19;;;;;;;30.43;11.50;;;;;;;;;;5075043;28;20824;-72
2022/03/30 10:14:47;;;;;;;22.80;10.03;;;;;;;;;;5075118;28;20491;-72
2022/03/30 10:17:14;;;;;;;33.97;10.03;;;;;;;;;;5074852;28;20483;-71
2022/03/30 10:19:44;;;;;;;26.27;11.47;;;;;;;;;;5074992;28;20946;-72
2022/03/30 10:22:18;;;;;;;22.73;11.00;;;;;;;;;;5074698;28;20566;-71
2022/03/30 10:24:55;;;;;;;27.00;10.30;;;;;;;;;;5074793;28;20439;-72
2022/03/30 10:27:26;;;;;;;26.67;11.10;;;;;;;;;;5074648;28;20436;-71
2022/03/30 10:29:55;;;;;;;22.17;10.03;;;;;;;;;;5074761;28;20545;-72
2022/03/30 10:32:22;;;;;;;34.73;11.93;;;;;;;;;;5074383;28;20455;-71
2022/03/30 10:35:00;;;;;;;33.10;10.00;;;;;;;;;;5074311;28;20452;-72
2022/03/30 10:37:28;;;;;;;23.10;9.80;;;;;;;;;;5074319;28;20968;-72
2022/03/30 10:39:56;;;;;;;23.23;8.60;;;;;;;;;;5074527;28;20987;-72
2022/03/30 10:42:23;;;;;;;28.20;7.43;;;;;;;;;;5074366;28;20451;-72
2022/03/30 10:44:51;;;;;;;21.90;7.77;;;;;;;;;;5074326;28;20444;-71
2022/03/30 10:47:20;;;;;;;23.60;8.07;;;;;;;;;;5074372;28;20444;-71
2022/03/30 10:49:49;;;;;;;23.30;8.83;;;;;;;;;;5073921;28;20458;-72
2022/03/30 10:52:27;;;;;;;20.27;7.53;;;;;;;;;;5074074;28;20475;-72
2022/03/30 10:55:26;;;;;;;19.83;6.80;;;;;;;;;;5074115;28;20901;-72
2022/03/30 10:57:57;;;;;;;22.43;7.77;;;;;;;;;;5073959;28;20495;-71
2022/03/30 11:00:25;;;;;;;32.03;8.37;;;;;;;;;;5073833;28;20549;-71
2022/03/30 11:02:52;;;;;;;18.63;7.20;;;;;;;;;;5074090;28;20929;-71
2022/03/30 11:05:28;;;;;;;19.87;7.90;;;;;;;;;;5073616;28;20452;-71
2022/03/30 11:07:56;;;;;;;17.23;7.93;;;;;;;;;;5074008;28;20991;-72
2022/03/30 11:10:24;;;;;;;21.03;7.57;;;;;;;;;;5073666;28;20443;-72
2022/03/30 11:13:02;;;;;;;19.40;7.90;;;;;;;;;;5073817;28;20452;-72
2022/03/30 11:15:30;;;;;;;24.63;9.67;;;;;;;;;;5073812;28;20452;-72
2022/03/30 11:18:12;;;;;;;23.57;7.80;;;;;;;;;;5073518;28;20531;-72
2022/03/30 11:20:39;;;;;;;16.90;8.23;;;;;;;;;;5073811;28;20802;-72
2022/03/30 11:23:21;;;;;;;18.77;7.73;;;;;;;;;;5073461;28;20478;-71
2022/03/30 11:25:52;;;;;;;23.87;8.40;;;;;;;;;;5073723;28;20436;-71
2022/03/30 11:28:19;;;;;;;14.43;7.33;;;;;;;;;;5073259;28;20499;-71
2022/03/30 11:30:48;;;;;;;19.10;8.57;;;;;;;;;;5073740;28;20452;-71
2022/03/30 11:33:22;;;;;;;20.73;9.17;;;;;;;;;;5073687;28;20477;-72
2022/03/30 11:35:50;;;;;;;21.53;7.93;;;;;;;;;;5073587;28;20451;-72
2022/03/30 11:38:27;;;;;;;41.07;14.70;;;;;;;;;;5073202;28;20471;-71
2022/03/30 11:40:59;;;;;;;18.13;7.90;;;;;;;;;;5073493;28;20808;-72
2022/03/30 11:43:26;;;;;;;21.63;8.30;;;;;;;;;;5073111;28;20455;-72
2022/03/30 11:45:54;;;;;;;14.70;7.67;;;;;;;;;;5073470;28;20830;-72
2022/03/30 11:48:22;;;;;;;17.60;8.30;;;;;;;;;;5073356;28;20968;-71
2022/03/30 11:50:50;;;;;;;19.60;8.20;;;;;;;;;;5073185;28;20455;-72
2022/03/30 11:53:21;;;;;;;19.77;9.60;;;;;;;;;;5073035;28;20877;-72
2022/03/30 11:55:54;;;;;;;20.10;7.70;;;;;;;;;;5073363;28;20925;-72
2022/03/30 11:58:25;;;;;;;21.53;7.80;;;;;;;;;;5073297;28;20855;-71
2022/03/30 12:00:53;;;;;;;18.07;7.20;;;;;;;;;;5072921;28;20603;-71
2022/03/30 12:03:20;;;;;;;20.43;7.37;;;;;;;;;;5073258;28;20456;-71
2022/03/30 12:05:51;;;;;;;26.63;9.27;;;;;;;;;;5072884;28;20459;-71
2022/03/30 12:08:19;;;;;;;20.70;8.43;;;;;;;;;;5073240;28;21030;-71
2022/03/30 12:10:48;;;;;;;16.53;8.83;;;;;;;;;;5072613;28;20451;-71
2022/03/30 12:13:21;;;;;;;26.27;10.77;;;;;;;;;;5072918;28;20461;-71
2022/03/30 12:15:48;;;;;;;28.93;14.43;;;;;;;;;;5072901;28;20431;-71
2022/03/30 12:18:15;;;;;;;31.27;11.30;;;;;;;;;;5072988;28;20863;-72
2022/03/30 12:20:42;;;;;;;30.50;12.80;;;;;;;;;;5073217;28;20450;-72
2022/03/30 12:23:10;;;;;;;23.00;8.90;;;;;;;;;;5072798;28;20987;-72
2022/03/30 12:25:39;;;;;;;21.97;7.83;;;;;;;;;;5072936;28;20456;-71
2022/03/30 12:28:07;;;;;;;25.63;7.53;;;;;;;;;;5072956;28;20475;-71
2022/03/30 12:30:37;;;;;;;27.90;9.03;;;;;;;;;;5072954;28;20479;-71
2022/03/30 12:33:04;;;;;;;24.90;9.70;;;;;;;;;;5073331;28;20452;-72
2022/03/30 12:35:33;;;;;;;32.17;8.50;;;;;;;;;;5073077;28;20825;-74
2022/03/30 12:38:07;;;;;;;24.30;7.90;;;;;;;;;;5072500;28;20499;-71
2022/03/30 12:40:35;;;;;;;24.37;10.20;;;;;;;;;;5073006;28;20513;-71
2022/03/30 12:43:02;;;;;;;19.73;10.60;;;;;;;;;;5072690;28;20518;-72
2022/03/30 12:45:29;;;;;;;19.10;9.60;;;;;;;;;;5072646;28;20452;-72
2022/03/30 12:47:59;;;;;;;19.50;7.67;;;;;;;;;;5072836;28;20464;-72
2022/03/30 12:50:30;;;;;;;21.30;8.67;;;;;;;;;;5072859;28;20554;-71
2022/03/30 12:53:03;;;;;;;27.70;8.37;;;;;;;;;;5072632;28;20436;-72
2022/03/30 12:55:32;;;;;;;23.30;8.80;;;;;;;;;;5071759;28;20443;-71
2022/03/30 12:58:00;;;;;;;21.20;8.27;;;;;;;;;;5072426;28;20503;-71
2022/03/30 13:00:31;;;;;;;16.10;7.57;;;;;;;;;;5076128;28;20524;-72
2022/03/30 13:03:07;;;;;;;34.57;9.80;;;;;;;;;;5076640;28;20518;-72
2022/03/30 13:05:35;;;;;;;28.40;9.67;;;;;;;;;;5076722;28;20981;-72
2022/03/30 13:08:09;;;;;;;21.43;8.60;;;;;;;;;;5075985;28;20502;-72
2022/03/30 13:10:47;;;;;;;29.07;8.97;;;;;;;;;;5076374;28;20440;-71
2022/03/30 13:13:16;;;;;;;24.00;9.77;;;;;;;;;;5076431;28;20450;-71
2022/03/30 13:15:43;;;;;;;25.30;8.73;;;;;;;;;;5076278;28;20707;-73
2022/03/30 13:18:17;;;;;;;16.50;7.77;;;;;;;;;;5076138;28;20503;-71
2022/03/30 13:20:53;;;;;;;31.97;8.20;;;;;;;;;;5075826;28;20493;-73
2022/03/30 13:23:21;;;;;;;32.53;8.20;;;;;;;;;;5075746;28;20466;-70
2022/03/30 13:25:48;;;;;;;16.67;8.97;;;;;;;;;;5075994;28;20887;-70
2022/03/30 13:28:23;;;;;;;33.73;9.73;;;;;;;;;;5075997;28;20838;-71
2022/03/30 13:30:50;;;;;;;26.13;9.30;;;;;;;;;;5075902;28;20482;-71
2022/03/30 13:33:18;;;;;;;29.83;9.50;;;;;;;;;;5075843;28;20960;-70
2022/03/30 13:35:47;;;;;;;20.63;9.60;;;;;;;;;;5075679;28;20458;-71
2022/03/30 13:38:17;;;;;;;25.67;8.97;;;;;;;;;;5075605;28;20519;-71
2022/03/30 13:40:45;;;;;;;23.77;9.50;;;;;;;;;;5075744;28;20821;-70
2022/03/30 13:43:12;;;;;;;23.63;9.10;;;;;;;;;;5075714;28;20804;-71
2022/03/30 13:45:39;;;;;;;34.03;8.43;;;;;;;;;;5075451;28;20451;-70
2022/03/30 13:48:06;;;;;;;28.93;10.27;;;;;;;;;;5075571;28;20463;-71
2022/03/30 13:50:35;;;;;;;19.87;8.00;;;;;;;;;;5071215;28;20454;-71
2022/03/30 13:53:03;;;;;;;17.60;9.40;;;;;;;;;;5072950;28;20452;-70
2022/03/30 13:55:30;;;;;;;50.80;23.20;;;;;;;;;;5074106;28;20440;-70
2022/03/30 13:57:58;;;;;;;45.70;18.73;;;;;;;;;;5074069;28;20487;-71
2022/03/30 14:00:27;;;;;;;23.50;8.93;;;;;;;;;;5073792;28;20479;-71
2022/03/30 14:02:55;;;;;;;22.83;8.57;;;;;;;;;;5073768;28;20993;-73
2022/03/30 14:05:22;;;;;;;35.37;20.33;;;;;;;;;;5073360;28;20502;-72
2022/03/30 14:07:51;;;;;;;15.30;9.70;;;;;;;;;;5073924;28;20475;-73
2022/03/30 14:10:18;;;;;;;29.67;16.20;;;;;;;;;;5072476;28;20490;-73
2022/03/30 14:12:45;;;;;;;19.17;12.63;;;;;;;;;;5073821;28;20941;-73
2022/03/30 14:15:12;;;;;;;23.10;10.20;;;;;;;;;;5073949;28;20450;-71
2022/03/30 14:17:40;;;;;;;28.87;16.17;;;;;;;;;;5073741;28;20579;-71
2022/03/30 14:20:07;;;;;;;24.80;11.40;;;;;;;;;;5073449;28;20462;-70
2022/03/30 14:22:34;;;;;;;26.33;15.10;;;;;;;;;;5073207;28;20471;-71
2022/03/30 14:25:03;;;;;;;22.10;10.57;;;;;;;;;;5073624;28;20443;-71
2022/03/30 14:27:31;;;;;;;21.90;11.43;;;;;;;;;;5073425;28;20944;-71
2022/03/30 14:29:58;;;;;;;33.43;14.93;;;;;;;;;;5073618;28;20459;-71
2022/03/30 14:32:26;;;;;;;27.47;14.23;;;;;;;;;;5073472;28;20830;-71
2022/03/30 14:34:53;;;;;;;32.00;15.13;;;;;;;;;;5072945;28;20448;-72
2022/03/30 14:37:22;;;;;;;22.43;11.53;;;;;;;;;;5073296;28;20930;-70